Time;durP1;ratioP1;P1;durP2;ratioP2;P2;SDS_P1;SDS_P2;PMS_P1;PMS_P2;Temp;Humidity;BMP_temperature;BMP_pressure;BME280_temperature;BME280_humidity;BME280_pressure;Samples;Min_cycle;Max_cycle;Signal;HPM_P1;HPM_P2
2022/10/21 00:01:17;;;;;;;36.63;19.65;;;;;;;1.44;100.00;98631.00;1750570;82;21046;-78
2022/10/21 00:03:44;;;;;;;32.90;15.40;;;;;;;1.57;100.00;98629.67;1770760;81;20892;-81
2022/10/21 00:06:09;;;;;;;51.15;20.43;;;;;;;1.68;100.00;98624.51;1770077;81;21008;-78
2022/10/21 00:08:36;;;;;;;45.23;22.35;;;;;;;1.77;100.00;98629.11;1749479;82;21007;-78
2022/10/21 00:11:04;;;;;;;43.68;21.82;;;;;;;1.78;100.00;98630.75;1770564;81;21027;-81
2022/10/21 00:13:30;;;;;;;41.30;20.10;;;;;;;1.79;100.00;98620.89;1769985;81;21359;-78
2022/10/21 00:16:14;;;;;;;36.15;18.15;;;;;;;1.82;100.00;98612.47;1769713;81;21007;-78
2022/10/21 00:18:41;;;;;;;39.30;21.40;;;;;;;1.76;100.00;98614.12;1769911;81;21051;-81
2022/10/21 00:21:11;;;;;;;38.67;18.92;;;;;;;1.68;100.00;98614.34;1770307;81;21012;-80
2022/10/21 00:23:36;;;;;;;32.40;18.57;;;;;;;1.54;100.00;98607.36;1769899;81;21067;-80
2022/10/21 00:26:02;;;;;;;34.13;18.55;;;;;;;1.43;100.00;98602.14;1749617;82;21210;-80
2022/10/21 00:28:28;;;;;;;51.63;28.27;;;;;;;1.29;100.00;98602.67;1770440;81;20896;-78
2022/10/21 00:30:54;;;;;;;47.50;25.05;;;;;;;1.06;100.00;98595.06;1770412;81;20947;-81
2022/10/21 00:33:20;;;;;;;49.58;27.62;;;;;;;0.88;100.00;98588.17;1770309;81;23238;-80
2022/10/21 00:35:56;;;;;;;46.83;25.60;;;;;;;0.84;100.00;98593.59;1770000;81;20976;-81
2022/10/21 00:38:22;;;;;;;46.50;25.35;;;;;;;0.80;100.00;98589.70;1769074;81;21988;-78
2022/10/21 00:40:48;;;;;;;47.90;25.80;;;;;;;0.69;100.00;98583.64;1770132;81;20960;-78
2022/10/21 00:43:14;;;;;;;50.17;27.90;;;;;;;0.66;100.00;98578.17;1749898;82;21567;-78
2022/10/21 00:45:41;;;;;;;47.53;26.80;;;;;;;0.62;100.00;98578.28;1770075;81;21036;-78
2022/10/21 00:48:15;;;;;;;50.85;24.75;;;;;;;0.51;100.00;98572.19;1770332;81;20910;-78
2022/10/21 00:50:55;;;;;;;30.80;14.90;;;;;;;0.49;100.00;98571.58;1770360;81;21116;-78
2022/10/21 00:53:21;;;;;;;40.33;19.70;;;;;;;0.60;100.00;98572.82;1770067;81;20983;-81
2022/10/21 00:55:57;;;;;;;37.08;18.57;;;;;;;0.78;100.00;98565.90;1766674;81;20945;-81
2022/10/21 00:58:25;;;;;;;35.08;18.62;;;;;;;0.93;100.00;98564.35;1770318;81;21003;-78
2022/10/21 01:00:51;;;;;;;39.97;20.40;;;;;;;1.04;100.00;98553.59;1770564;81;21394;-78
2022/10/21 01:03:17;;;;;;;35.20;21.15;;;;;;;1.05;100.00;98553.91;1717241;81;21587;-78
2022/10/21 01:05:43;;;;;;;40.30;20.95;;;;;;;1.02;100.00;98549.77;1770012;81;20895;-78
2022/10/21 01:08:09;;;;;;;43.85;25.00;;;;;;;0.98;100.00;98563.23;1749552;82;21029;-81
2022/10/21 01:10:37;;;;;;;42.98;23.65;;;;;;;0.86;100.00;98559.55;1770577;81;20932;-78
2022/10/21 01:13:34;;;;;;;49.70;27.87;;;;;;;0.71;100.00;98574.91;1770411;81;21464;-78
2022/10/21 01:16:21;;;;;;;42.25;23.42;;;;;;;0.61;100.00;98577.16;1769427;81;21393;-81
2022/10/21 01:19:26;;;;;;;47.03;25.45;;;;;;;0.52;100.00;98576.53;1770046;81;21028;-78
2022/10/21 01:21:56;;;;;;;47.75;25.92;;;;;;;0.38;100.00;98580.98;1770080;81;21479;-81
2022/10/21 01:24:46;;;;;;;46.00;25.82;;;;;;;0.35;100.00;98576.07;1769300;81;21087;-78
2022/10/21 01:27:36;;;;;;;42.78;23.25;;;;;;;0.34;100.00;98569.58;1769989;81;20980;-81
2022/10/21 01:30:14;;;;;;;42.67;21.77;;;;;;;0.34;100.00;98574.40;1770437;81;21416;-80
2022/10/21 01:32:51;;;;;;;51.50;23.65;;;;;;;0.35;100.00;98576.58;1770030;81;21448;-80
2022/10/21 01:35:34;;;;;;;42.88;22.82;;;;;;;0.36;100.00;98575.05;1749368;82;21429;-78
2022/10/21 01:38:33;;;;;;;40.78;20.75;;;;;;;0.25;100.00;98559.61;1769946;81;21112;-79
2022/10/21 01:41:19;;;;;;;35.88;19.27;;;;;;;0.23;100.00;98549.66;1770677;81;21053;-81
2022/10/21 01:44:21;;;;;;;36.58;20.57;;;;;;;0.24;100.00;98554.79;1749057;82;21233;-78
2022/10/21 01:46:59;;;;;;;32.58;19.60;;;;;;;0.32;100.00;98550.30;1769700;81;20977;-78
2022/10/21 01:49:42;;;;;;;32.17;18.17;;;;;;;0.39;100.00;98547.15;1741716;81;21051;-81
2022/10/21 01:52:08;;;;;;;26.37;14.65;;;;;;;0.41;100.00;98549.91;1749756;82;21078;-80
2022/10/21 01:54:37;;;;;;;29.52;15.78;;;;;;;0.48;100.00;98548.09;1741593;81;20893;-78
2022/10/21 01:57:03;;;;;;;29.40;16.55;;;;;;;0.56;100.00;98539.08;1733440;81;21014;-81
2022/10/21 01:59:30;;;;;;;28.25;15.95;;;;;;;0.65;100.00;98541.04;1767785;81;20944;-78
2022/10/21 02:01:57;;;;;;;28.80;14.93;;;;;;;0.70;100.00;98535.93;1767854;81;21012;-81
2022/10/21 02:04:23;;;;;;;29.55;16.82;;;;;;;0.73;100.00;98535.00;1767680;81;21012;-78
2022/10/21 02:06:48;;;;;;;33.20;16.85;;;;;;;0.77;100.00;98539.40;1744644;82;21052;-78
2022/10/21 02:09:14;;;;;;;29.55;16.30;;;;;;;0.84;100.00;98542.38;1767649;81;21155;-81
2022/10/21 02:11:40;;;;;;;29.85;16.23;;;;;;;0.92;100.00;98541.88;1744865;82;20973;-78
2022/10/21 02:14:18;;;;;;;32.05;15.88;;;;;;;0.91;100.00;98545.06;1767384;81;20948;-78
2022/10/21 02:16:43;;;;;;;32.13;15.75;;;;;;;0.88;100.00;98539.33;1767239;81;21036;-80
2022/10/21 02:19:13;;;;;;;36.13;18.85;;;;;;;0.78;100.00;98544.55;1767284;81;20869;-78
2022/10/21 02:21:39;;;;;;;45.58;21.60;;;;;;;0.62;100.00;98530.79;1766995;81;21937;-81
2022/10/21 02:24:22;;;;;;;35.45;20.12;;;;;;;0.44;100.00;98529.53;1744388;82;20874;-80
2022/10/21 02:26:48;;;;;;;35.63;21.05;;;;;;;0.36;100.00;98523.05;1767376;81;21165;-81
2022/10/21 02:29:14;;;;;;;38.23;19.35;;;;;;;0.28;100.00;98516.58;1767526;81;20858;-81
2022/10/21 02:32:22;;;;;;;36.75;19.57;;;;;;;0.23;100.00;98522.50;1744716;82;20989;-80
2022/10/21 02:35:12;;;;;;;31.35;17.62;;;;;;;0.24;100.00;98521.47;1767319;81;21765;-80
2022/10/21 02:37:46;;;;;;;38.73;20.62;;;;;;;0.17;100.00;98515.33;1767242;81;21019;-81
2022/10/21 02:40:19;;;;;;;44.73;21.70;;;;;;;0.12;100.00;98527.09;1767620;81;21099;-78
2022/10/21 02:43:06;;;;;;;41.68;20.82;;;;;;;0.10;100.00;98526.47;1763012;81;38692;-78
2022/10/21 02:45:32;;;;;;;40.58;20.95;;;;;;;0.04;100.00;98531.26;1755411;81;21060;-78
2022/10/21 02:47:58;;;;;;;38.15;20.50;;;;;;;-0.03;100.00;98527.23;1730850;82;20921;-81
2022/10/21 02:50:24;;;;;;;33.83;19.57;;;;;;;-0.06;100.00;98524.16;1749824;81;20887;-80
2022/10/21 02:52:50;;;;;;;37.05;20.27;;;;;;;-0.09;100.00;98505.38;1731396;82;20939;-78
2022/10/21 02:55:16;;;;;;;32.23;17.17;;;;;;;-0.17;100.00;98504.24;1746853;81;21719;-81
2022/10/21 02:57:42;;;;;;;33.88;18.75;;;;;;;-0.11;100.00;98506.60;1752388;81;20909;-80
2022/10/21 03:00:09;;;;;;;32.45;18.40;;;;;;;-0.04;100.00;98516.78;1744761;82;21527;-78
2022/10/21 03:02:35;;;;;;;38.10;19.27;;;;;;;0.03;100.00;98521.63;1767865;81;21575;-78
2022/10/21 03:05:01;;;;;;;33.30;18.50;;;;;;;0.09;100.00;98508.84;1767434;81;20873;-80
2022/10/21 03:07:27;;;;;;;32.00;17.30;;;;;;;0.09;100.00;98503.52;1745203;82;20960;-78
2022/10/21 03:09:52;;;;;;;29.98;16.57;;;;;;;0.08;100.00;98507.17;1767881;81;20988;-78
2022/10/21 03:12:18;;;;;;;30.57;16.57;;;;;;;0.04;100.00;98491.28;1767492;81;21849;-80
2022/10/21 03:14:44;;;;;;;34.90;16.27;;;;;;;0.05;100.00;98503.59;1744444;82;20886;-80
2022/10/21 03:17:10;;;;;;;30.10;15.98;;;;;;;0.03;100.00;98508.30;1767394;81;20948;-80
2022/10/21 03:19:36;;;;;;;29.15;16.17;;;;;;;0.17;100.00;98508.66;1744567;82;21001;-78
2022/10/21 03:22:02;;;;;;;31.05;16.40;;;;;;;0.26;100.00;98499.97;1768062;81;20920;-78
2022/10/21 03:24:28;;;;;;;32.38;18.10;;;;;;;0.28;100.00;98494.73;1744702;82;20893;-78
2022/10/21 03:26:54;;;;;;;35.35;18.20;;;;;;;0.19;100.00;98494.61;1767679;81;20873;-78
2022/10/21 03:29:20;;;;;;;32.33;18.67;;;;;;;0.17;100.00;98503.81;1767708;81;21630;-78
2022/10/21 03:31:46;;;;;;;30.05;17.80;;;;;;;0.08;100.00;98495.18;1744954;82;20862;-81
2022/10/21 03:34:11;;;;;;;25.52;16.55;;;;;;;0.00;100.00;98503.39;1767556;81;21038;-81
2022/10/21 03:36:37;;;;;;;26.70;14.60;;;;;;;-0.10;100.00;98494.41;1744756;82;21759;-80
2022/10/21 03:39:03;;;;;;;24.67;14.35;;;;;;;-0.10;100.00;98483.75;1767422;81;20988;-78
2022/10/21 03:41:29;;;;;;;33.58;15.60;;;;;;;-0.06;100.00;98489.52;1767747;81;20968;-80
2022/10/21 03:43:55;;;;;;;30.12;15.08;;;;;;;-0.04;100.00;98492.80;1744866;82;21009;-80
2022/10/21 03:46:21;;;;;;;25.85;15.38;;;;;;;-0.04;100.00;98486.14;1767537;81;20952;-80
2022/10/21 03:48:47;;;;;;;26.55;13.60;;;;;;;-0.02;100.00;98485.42;1767218;81;21252;-80
2022/10/21 03:51:13;;;;;;;23.85;14.00;;;;;;;-0.01;100.00;98479.06;1745194;82;20862;-80
2022/10/21 03:53:39;;;;;;;34.63;15.55;;;;;;;-0.01;100.00;98474.55;1767564;81;20964;-78
2022/10/21 03:56:06;;;;;;;27.27;14.47;;;;;;;-0.01;100.00;98467.08;1746440;81;20882;-81
2022/10/21 03:58:34;;;;;;;26.68;13.85;;;;;;;-0.04;100.00;98460.31;1761640;81;21036;-80
2022/10/21 04:00:59;;;;;;;30.23;16.75;;;;;;;-0.01;100.00;98461.75;1761956;81;21157;-80
2022/10/21 04:03:25;;;;;;;29.27;14.45;;;;;;;-0.01;100.00;98455.91;1744258;82;20905;-80
2022/10/21 04:05:51;;;;;;;29.57;14.93;;;;;;;0.02;100.00;98450.70;1761643;81;20988;-78
2022/10/21 04:08:17;;;;;;;30.72;14.50;;;;;;;-0.04;100.00;98453.66;1761973;81;20897;-78
2022/10/21 04:10:44;;;;;;;36.05;20.12;;;;;;;-0.08;100.00;98445.77;1761835;81;21448;-80
2022/10/21 04:13:10;;;;;;;33.83;20.52;;;;;;;-0.18;100.00;98440.48;1744137;82;21280;-80
2022/10/21 04:15:36;;;;;;;32.28;17.65;;;;;;;-0.26;100.00;98425.50;1761222;81;20869;-78
2022/10/21 04:18:01;;;;;;;37.53;20.35;;;;;;;-0.30;100.00;98429.60;1744375;82;22334;-80
2022/10/21 04:20:27;;;;;;;31.40;17.15;;;;;;;-0.39;100.00;98440.95;1761714;81;20897;-78
2022/10/21 04:22:53;;;;;;;34.23;19.17;;;;;;;-0.43;100.00;98449.00;1744276;82;20909;-80
2022/10/21 04:25:19;;;;;;;36.40;19.75;;;;;;;-0.47;100.00;98447.77;1761414;81;21092;-78
2022/10/21 04:27:45;;;;;;;36.23;21.30;;;;;;;-0.57;100.00;98440.67;1743713;82;20867;-81
2022/10/21 04:30:11;;;;;;;34.58;22.48;;;;;;;-0.56;100.00;98436.98;1761678;81;20944;-78
2022/10/21 04:32:37;;;;;;;37.63;19.70;;;;;;;-0.59;100.00;98440.88;1744351;82;20878;-78
2022/10/21 04:35:03;;;;;;;40.95;21.20;;;;;;;-0.63;100.00;98439.61;1761934;81;20901;-78
2022/10/21 04:37:29;;;;;;;34.15;20.50;;;;;;;-0.61;100.00;98455.38;1761897;81;21529;-78
2022/10/21 04:39:56;;;;;;;36.10;21.57;;;;;;;-0.60;100.00;98445.89;1744056;82;20945;-78
2022/10/21 04:42:22;;;;;;;38.63;20.55;;;;;;;-0.60;100.00;98445.03;1761835;81;21540;-78
2022/10/21 04:44:48;;;;;;;26.52;17.35;;;;;;;-0.56;100.00;98432.98;1743816;82;21123;-78
2022/10/21 04:47:14;;;;;;;36.65;18.35;;;;;;;-0.53;100.00;98432.58;1761612;81;20984;-78
2022/10/21 04:49:40;;;;;;;31.57;18.02;;;;;;;-0.43;100.00;98414.90;1744058;82;21191;-81
2022/10/21 04:52:06;;;;;;;24.90;13.08;;;;;;;-0.31;100.00;98412.81;1761505;81;20999;-81
2022/10/21 04:54:32;;;;;;;30.62;16.17;;;;;;;-0.12;100.00;98403.73;1730144;82;21413;-78
2022/10/21 04:56:58;;;;;;;28.17;15.80;;;;;;;0.06;100.00;98403.14;1747872;79;21002;-78
2022/10/21 04:59:24;;;;;;;23.80;13.43;;;;;;;0.03;100.00;98404.89;1729979;81;20900;-80
2022/10/21 05:01:50;;;;;;;32.45;17.17;;;;;;;-0.04;100.00;98405.70;1746093;81;21527;-80
2022/10/21 05:04:15;;;;;;;32.70;17.80;;;;;;;-0.02;100.00;98408.97;1760115;81;20877;-80
2022/10/21 05:06:41;;;;;;;30.05;14.80;;;;;;;-0.01;100.00;98404.45;1760188;81;20877;-81
2022/10/21 05:09:08;;;;;;;26.97;14.25;;;;;;;-0.03;100.00;98405.18;1754871;80;20870;-80
2022/10/21 05:11:35;;;;;;;25.70;15.20;;;;;;;-0.03;100.00;98414.50;1730376;81;21468;-81
2022/10/21 05:14:01;;;;;;;27.35;14.58;;;;;;;-0.04;100.00;98418.20;1730054;82;21044;-80
2022/10/21 05:16:26;;;;;;;29.35;17.37;;;;;;;-0.07;100.00;98427.42;1729929;81;21579;-81
2022/10/21 05:18:52;;;;;;;27.65;15.23;;;;;;;-0.09;100.00;98428.11;1729929;82;20980;-81
2022/10/21 05:21:18;;;;;;;32.17;14.55;;;;;;;-0.09;100.00;98433.95;1738200;80;20880;-80
2022/10/21 05:23:44;;;;;;;30.43;16.97;;;;;;;-0.08;100.00;98433.78;1770484;80;20885;-81
2022/10/21 05:26:10;;;;;;;32.17;17.60;;;;;;;-0.03;100.00;98424.65;1789808;80;21183;-81
2022/10/21 05:28:36;;;;;;;34.08;16.60;;;;;;;0.05;100.00;98432.16;1730279;80;21666;-78
2022/10/21 05:31:02;;;;;;;32.42;15.95;;;;;;;0.09;100.00;98430.23;1730074;82;20965;-81
2022/10/21 05:33:28;;;;;;;42.03;20.90;;;;;;;0.12;100.00;98434.32;1734851;80;20951;-80
2022/10/21 05:36:03;;;;;;;31.62;17.92;;;;;;;0.12;100.00;98439.14;1754790;80;20868;-81
2022/10/21 05:38:29;;;;;;;32.98;16.60;;;;;;;0.14;100.00;98437.59;1730800;80;21108;-81
2022/10/21 05:40:56;;;;;;;30.55;16.87;;;;;;;0.17;100.00;98429.19;1755944;80;21063;-81
2022/10/21 05:43:22;;;;;;;34.67;17.20;;;;;;;0.25;100.00;98417.81;1767468;80;21821;-80
2022/10/21 05:45:48;;;;;;;33.15;21.00;;;;;;;0.37;100.00;98423.37;1731995;80;20889;-78
2022/10/21 05:48:17;;;;;;;26.27;16.42;;;;;;;0.40;100.00;98422.95;1737448;81;21078;-78
2022/10/21 05:50:42;;;;;;;28.35;17.17;;;;;;;0.48;100.00;98426.76;1723819;81;21166;-81
2022/10/21 05:53:08;;;;;;;36.48;17.75;;;;;;;0.57;100.00;98424.70;1757417;81;21031;-78
2022/10/21 05:55:34;;;;;;;31.12;15.20;;;;;;;0.66;100.00;98419.98;1756560;81;20923;-81
2022/10/21 05:58:00;;;;;;;25.65;14.63;;;;;;;0.77;100.00;98418.86;1730926;81;21524;-78
2022/10/21 06:00:26;;;;;;;24.72;13.78;;;;;;;0.89;100.00;98414.22;1730700;82;20904;-81
2022/10/21 06:02:52;;;;;;;21.62;13.43;;;;;;;0.97;100.00;98412.66;1730996;82;21021;-80
2022/10/21 06:05:18;;;;;;;29.07;14.58;;;;;;;1.06;100.00;98407.41;1730071;82;20896;-78
2022/10/21 06:07:44;;;;;;;28.85;16.17;;;;;;;1.08;100.00;98406.67;1730408;82;21018;-78
2022/10/21 06:10:11;;;;;;;29.82;16.37;;;;;;;1.10;100.00;98412.10;1730031;82;20891;-80
2022/10/21 06:12:37;;;;;;;52.93;25.57;;;;;;;1.01;100.00;98421.36;1738929;80;21299;-80
2022/10/21 06:15:03;;;;;;;57.78;29.50;;;;;;;1.01;100.00;98425.88;1768871;80;21599;-81
2022/10/21 06:17:29;;;;;;;48.80;27.17;;;;;;;1.00;100.00;98423.73;1760201;81;21019;-81
2022/10/21 06:19:55;;;;;;;53.08;29.55;;;;;;;0.93;100.00;98426.10;1763648;80;20912;-78
2022/10/21 06:22:21;;;;;;;51.77;27.80;;;;;;;0.91;100.00;98443.66;1745966;81;20956;-78
2022/10/21 06:24:48;;;;;;;46.37;27.52;;;;;;;0.96;100.00;98443.88;1744680;81;21529;-81
2022/10/21 06:27:14;;;;;;;44.70;23.90;;;;;;;0.96;100.00;98427.04;1752046;80;21466;-81
2022/10/21 06:29:40;;;;;;;66.95;32.55;;;;;;;1.02;100.00;98436.34;1754442;81;20881;-78
2022/10/21 06:32:05;;;;;;;111.55;65.30;;;;;;;1.05;100.00;98441.80;1755806;80;20963;-78
2022/10/21 06:34:31;;;;;;;91.32;50.38;;;;;;;1.05;100.00;98441.80;1758508;80;20870;-78
2022/10/21 06:36:57;;;;;;;68.28;40.10;;;;;;;1.23;100.00;98454.49;1751603;80;20967;-78
2022/10/21 06:39:23;;;;;;;97.92;44.48;;;;;;;1.36;100.00;98459.27;1745828;80;21136;-81
2022/10/21 06:41:49;;;;;;;98.42;51.77;;;;;;;1.52;100.00;98457.17;1748627;81;20921;-80
2022/10/21 06:44:15;;;;;;;49.30;29.55;;;;;;;1.72;100.00;98459.79;1751352;81;20898;-78
2022/10/21 06:46:41;;;;;;;43.83;29.55;;;;;;;1.84;100.00;98440.70;1748638;81;20985;-78
2022/10/21 06:49:07;;;;;;;63.63;37.55;;;;;;;1.98;100.00;98447.63;1746659;81;20924;-78
2022/10/21 06:51:33;;;;;;;68.02;40.28;;;;;;;2.12;100.00;98446.50;1744145;81;21580;-78
2022/10/21 06:53:59;;;;;;;57.88;32.88;;;;;;;2.23;100.00;98441.01;1747898;80;20896;-78
2022/10/21 06:56:25;;;;;;;54.42;31.87;;;;;;;2.37;100.00;98441.20;1746412;81;21028;-78
2022/10/21 06:58:51;;;;;;;45.03;26.85;;;;;;;2.46;100.00;98448.44;1749445;81;21012;-81
2022/10/21 07:01:23;;;;;;;44.95;28.87;;;;;;;2.49;100.00;98446.17;1755139;81;20972;-78
2022/10/21 07:03:49;;;;;;;39.65;22.90;;;;;;;2.56;100.00;98440.74;1759163;80;21139;-80
2022/10/21 07:06:15;;;;;;;38.42;22.93;;;;;;;2.65;100.00;98439.47;1751391;80;21020;-78
2022/10/21 07:08:41;;;;;;;36.05;19.85;;;;;;;2.78;100.00;98435.84;1747154;81;21553;-81
2022/10/21 07:11:07;;;;;;;35.03;21.77;;;;;;;2.82;100.00;98431.19;1749905;81;20853;-79
2022/10/21 07:13:36;;;;;;;34.55;21.82;;;;;;;2.91;100.00;98431.72;1743455;80;20921;-78
2022/10/21 07:16:04;;;;;;;33.18;21.23;;;;;;;2.95;100.00;98425.39;1736101;81;21094;-81
2022/10/21 07:18:31;;;;;;;45.50;23.75;;;;;;;3.00;100.00;98432.25;1749179;80;21444;-81
2022/10/21 07:21:03;;;;;;;36.23;22.20;;;;;;;3.10;100.00;98433.38;1758461;81;20996;-81
2022/10/21 07:23:29;;;;;;;38.53;20.35;;;;;;;3.25;100.00;98446.42;1738456;81;21389;-81
2022/10/21 07:25:55;;;;;;;31.17;18.77;;;;;;;3.31;100.00;98448.70;1748646;81;20917;-81
2022/10/21 07:28:21;;;;;;;30.72;17.77;;;;;;;3.47;100.00;98448.64;1754768;81;21692;-79
2022/10/21 07:30:47;;;;;;;36.77;21.35;;;;;;;3.62;100.00;98435.69;1747032;81;20879;-82
2022/10/21 07:33:13;;;;;;;52.78;26.85;;;;;;;3.62;100.00;98435.69;1753466;80;21418;-81
2022/10/21 07:35:39;;;;;;;43.20;26.00;;;;;;;3.75;100.00;98426.66;1737323;80;20896;-79
2022/10/21 07:38:05;;;;;;;46.23;25.80;;;;;;;3.79;100.00;98415.27;1757112;81;20947;-79
2022/10/21 07:40:31;;;;;;;39.18;22.55;;;;;;;3.90;100.00;98418.52;1747858;81;21553;-81
2022/10/21 07:42:57;;;;;;;41.98;22.73;;;;;;;3.99;100.00;98404.79;1745147;80;20881;-79
2022/10/21 07:45:23;;;;;;;43.80;24.30;;;;;;;4.10;100.00;98402.66;1757987;81;21546;-81
2022/10/21 07:47:49;;;;;;;37.67;23.92;;;;;;;4.24;100.00;98400.09;1785616;79;20882;-78
2022/10/21 07:50:15;;;;;;;55.03;28.35;;;;;;;4.44;100.00;98387.20;1773257;79;20985;-79
2022/10/21 07:52:44;;;;;;;48.98;28.52;;;;;;;4.62;100.00;98388.97;1775873;79;21180;-81
2022/10/21 07:55:08;;;;;;;44.35;24.07;;;;;;;4.85;100.00;98374.71;1768482;79;21029;-78
2022/10/21 07:57:34;;;;;;;30.37;16.77;;;;;;;5.07;100.00;98381.13;1674368;80;20969;-81
2022/10/21 08:00:00;;;;;;;316.68;138.18;;;;;;;5.26;100.00;98377.77;1741890;80;20939;-81
2022/10/21 08:02:26;;;;;;;75.47;40.38;;;;;;;5.43;100.00;98372.48;1749129;80;21072;-79
2022/10/21 08:04:54;;;;;;;41.02;23.73;;;;;;;5.65;100.00;98364.06;1764996;80;21218;-79
2022/10/21 08:07:20;;;;;;;39.13;18.98;;;;;;;5.84;100.00;98364.69;1750567;80;21059;-82
2022/10/21 08:09:45;;;;;;;33.70;20.72;;;;;;;6.02;100.00;98361.00;1750321;80;22301;-79
2022/10/21 08:12:11;;;;;;;34.53;21.68;;;;;;;6.14;100.00;98350.17;1762697;80;20889;-78
2022/10/21 08:14:38;;;;;;;69.00;35.83;;;;;;;6.33;100.00;98347.55;1769029;80;21668;-81
2022/10/21 08:17:04;;;;;;;49.55;29.18;;;;;;;6.53;100.00;98332.25;1758960;80;21072;-79
2022/10/21 08:19:30;;;;;;;35.33;21.35;;;;;;;6.77;100.00;98335.05;1768340;80;20945;-81
2022/10/21 08:21:57;;;;;;;36.40;21.50;;;;;;;6.98;100.00;98336.12;1740017;81;20968;-81
2022/10/21 08:24:23;;;;;;;30.15;17.85;;;;;;;7.21;100.00;98341.84;1765660;80;21035;-79
2022/10/21 08:26:50;;;;;;;53.40;28.25;;;;;;;7.48;100.00;98333.81;1737129;80;20870;-82
2022/10/21 08:29:16;;;;;;;48.68;25.02;;;;;;;7.99;100.00;98328.14;1766254;79;21805;-81
2022/10/21 08:31:42;;;;;;;84.67;36.40;;;;;;;8.51;100.00;98324.84;1719233;81;20960;-79
2022/10/21 08:34:09;;;;;;;41.73;22.50;;;;;;;8.62;100.00;98326.53;1742588;81;21083;-82
2022/10/21 08:36:35;;;;;;;47.93;25.57;;;;;;;8.69;100.00;98318.48;1747422;81;21091;-81
2022/10/21 08:39:01;;;;;;;51.42;26.75;;;;;;;8.82;100.00;98313.72;1749526;81;21479;-82
2022/10/21 08:41:39;;;;;;;55.48;30.27;;;;;;;8.98;100.00;98319.49;1746180;80;21256;-81
2022/10/21 08:44:36;;;;;;;88.70;41.37;;;;;;;9.15;100.00;98310.66;1761065;80;21033;-79
2022/10/21 08:47:22;;;;;;;37.30;19.30;;;;;;;9.31;100.00;98308.81;1762537;80;21050;-79
2022/10/21 08:50:05;;;;;;;22.05;13.05;;;;;;;9.42;100.00;98307.80;1746539;80;21033;-79
2022/10/21 08:52:41;;;;;;;57.35;29.82;;;;;;;9.60;98.26;98306.50;1748992;80;21510;-82
2022/10/21 08:55:24;;;;;;;102.05;49.03;;;;;;;9.57;98.81;98289.43;1750237;80;21183;-80
2022/10/21 08:57:52;;;;;;;54.88;30.95;;;;;;;9.69;98.80;98294.08;1745575;80;21022;-82
2022/10/21 09:00:21;;;;;;;53.80;27.10;;;;;;;9.76;97.71;98291.93;1744026;80;21094;-80
2022/10/21 09:03:17;;;;;;;58.65;31.55;;;;;;;9.80;92.62;98292.20;1752056;80;21467;-82
2022/10/21 09:06:09;;;;;;;37.17;23.07;;;;;;;9.97;95.80;98294.66;1744715;81;21460;-82
2022/10/21 09:09:03;;;;;;;47.17;22.85;;;;;;;10.10;93.83;98289.55;1760331;80;21157;-82
2022/10/21 09:11:52;;;;;;;30.20;15.72;;;;;;;10.25;91.35;98286.04;1749300;81;21012;-79
2022/10/21 09:14:32;;;;;;;23.32;12.95;;;;;;;10.45;92.22;98281.17;1788317;80;21445;-80
2022/10/21 09:17:12;;;;;;;49.48;24.63;;;;;;;10.52;92.64;98278.20;1746711;81;20968;-81
2022/10/21 09:20:07;;;;;;;35.03;19.82;;;;;;;10.64;93.31;98271.39;1736485;81;21464;-81
2022/10/21 09:22:42;;;;;;;38.80;20.10;;;;;;;10.81;92.82;98271.63;1741486;81;21107;-81
2022/10/21 09:25:21;;;;;;;23.70;13.05;;;;;;;10.97;90.81;98261.83;1747444;81;21056;-82
2022/10/21 09:27:47;;;;;;;24.23;12.50;;;;;;;11.17;90.16;98256.86;1744702;80;21082;-82
2022/10/21 09:30:20;;;;;;;16.15;11.00;;;;;;;11.17;90.37;98252.80;1736624;81;20963;-82
2022/10/21 09:32:49;;;;;;;19.85;10.23;;;;;;;11.25;88.61;98246.79;1747623;81;21456;-80
2022/10/21 09:35:47;;;;;;;18.90;11.85;;;;;;;11.32;87.06;98249.20;1743235;81;21044;-80
2022/10/21 09:38:44;;;;;;;14.03;10.45;;;;;;;11.39;87.86;98248.36;1748823;80;20966;-82
2022/10/21 09:41:17;;;;;;;18.90;11.75;;;;;;;11.33;83.11;98239.16;1751728;80;21039;-82
2022/10/21 09:43:43;;;;;;;19.25;11.97;;;;;;;11.43;86.62;98235.84;1740005;80;21062;-81
2022/10/21 09:46:12;;;;;;;21.00;11.20;;;;;;;11.46;86.13;98224.45;1741377;81;20881;-82
2022/10/21 09:48:48;;;;;;;20.08;11.10;;;;;;;11.36;80.50;98227.75;1753693;80;21082;-82
2022/10/21 09:51:24;;;;;;;26.90;11.33;;;;;;;11.44;83.94;98228.52;1747581;80;21032;-82
2022/10/21 09:54:13;;;;;;;23.75;14.10;;;;;;;11.49;85.95;98229.86;1743835;81;21043;-80
2022/10/21 09:56:48;;;;;;;65.08;29.82;;;;;;;11.51;85.42;98233.91;1738592;80;21087;-81
2022/10/21 09:59:17;;;;;;;16.07;9.83;;;;;;;11.61;87.11;98229.50;1753960;80;21519;-82
2022/10/21 10:01:43;;;;;;;16.32;10.50;;;;;;;11.69;85.51;98224.29;1721308;81;21154;-82
2022/10/21 10:04:26;;;;;;;22.77;10.43;;;;;;;11.61;85.88;98216.74;1739363;80;20983;-82
2022/10/21 10:06:52;;;;;;;26.02;12.40;;;;;;;11.62;85.61;98210.22;1760061;80;21025;-80
2022/10/21 10:09:30;;;;;;;56.70;22.58;;;;;;;11.66;85.00;98203.70;1792236;80;21547;-82
2022/10/21 10:12:12;;;;;;;22.65;13.95;;;;;;;11.65;85.60;98199.37;1782096;80;21017;-82
2022/10/21 10:14:44;;;;;;;262.72;96.55;;;;;;;11.69;84.40;98190.36;1753080;80;21335;-82
2022/10/21 10:17:34;;;;;;;24.67;12.73;;;;;;;11.79;85.14;98186.23;1735571;81;21523;-80
2022/10/21 10:20:14;;;;;;;23.02;11.43;;;;;;;11.88;82.67;98180.20;1747040;81;21658;-82
2022/10/21 10:23:00;;;;;;;40.70;14.25;;;;;;;11.83;83.00;98170.21;1744661;80;21087;-80
2022/10/21 10:25:35;;;;;;;75.50;38.10;;;;;;;11.91;83.48;98163.36;1747918;80;21064;-80
2022/10/21 10:28:15;;;;;;;60.25;32.40;;;;;;;12.04;83.70;98166.21;1746510;80;21254;-80
2022/10/21 10:30:50;;;;;;;25.48;15.05;;;;;;;12.19;83.86;98164.46;1739949;81;22149;-80
2022/10/21 10:33:26;;;;;;;17.90;9.28;;;;;;;12.30;82.56;98160.54;1746400;80;21565;-83
2022/10/21 10:36:04;;;;;;;16.23;8.78;;;;;;;12.29;80.09;98156.20;1760635;80;21069;-82
2022/10/21 10:38:44;;;;;;;22.27;12.60;;;;;;;12.31;80.37;98160.27;1741089;80;21528;-80
2022/10/21 10:41:14;;;;;;;27.37;15.03;;;;;;;12.42;81.73;98152.81;1740909;80;21047;-82
2022/10/21 10:43:52;;;;;;;12.80;8.48;;;;;;;12.43;80.98;98157.16;1737714;80;21019;-82
2022/10/21 10:46:32;;;;;;;23.55;10.65;;;;;;;12.45;81.18;98158.22;1744729;81;21026;-80
2022/10/21 10:49:15;;;;;;;24.43;12.53;;;;;;;12.48;80.99;98151.67;1738580;81;21606;-82
2022/10/21 10:51:44;;;;;;;31.52;16.40;;;;;;;12.51;81.55;98149.73;1730813;82;21004;-82
2022/10/21 10:54:27;;;;;;;38.30;17.57;;;;;;;12.59;81.37;98138.77;1726022;81;21046;-80
2022/10/21 10:57:04;;;;;;;31.70;17.48;;;;;;;12.60;79.09;98123.53;1715296;81;21702;-80
2022/10/21 10:59:46;;;;;;;22.35;12.10;;;;;;;12.57;79.56;98116.52;1740256;80;21507;-82
2022/10/21 11:02:27;;;;;;;18.95;10.93;;;;;;;12.63;79.50;98110.70;1742470;80;21015;-80
2022/10/21 11:05:04;;;;;;;22.02;9.68;;;;;;;12.67;79.79;98106.87;1745533;81;21038;-81
2022/10/21 11:07:50;;;;;;;14.33;8.85;;;;;;;12.75;79.76;98090.47;1729665;82;21492;-80
2022/10/21 11:10:33;;;;;;;12.73;6.50;;;;;;;12.84;79.93;98084.62;1748150;80;21052;-82
2022/10/21 11:13:00;;;;;;;12.13;7.53;;;;;;;12.90;77.45;98080.72;1742075;81;21682;-82
2022/10/21 11:15:46;;;;;;;22.32;9.23;;;;;;;12.95;75.41;98083.38;1750178;81;21017;-80
2022/10/21 11:18:33;;;;;;;13.90;8.08;;;;;;;13.03;77.38;98080.00;1749885;81;21090;-82
2022/10/21 11:21:13;;;;;;;14.40;8.30;;;;;;;13.01;72.99;98077.33;1718876;82;21592;-80
2022/10/21 11:23:59;;;;;;;16.17;8.05;;;;;;;13.06;73.69;98071.25;1739441;81;21098;-80
2022/10/21 11:26:37;;;;;;;14.10;8.03;;;;;;;13.18;75.91;98066.19;1772685;80;21351;-80
2022/10/21 11:29:49;;;;;;;18.25;10.75;;;;;;;13.31;76.22;98061.12;1770154;80;21519;-82
2022/10/21 11:32:39;;;;;;;15.68;9.10;;;;;;;13.33;76.17;98064.34;1750875;80;21008;-80
2022/10/21 11:35:27;;;;;;;15.75;8.23;;;;;;;13.44;76.98;98061.19;1759162;80;21170;-80